sensor_id;sensor_type;location;lat;lon;timestamp;P1;durP1;ratioP1;P2;durP2;ratioP2
1991;SDS011;997;48.448;8.924;2023-04-06T03:04:03;9.13;;;8.30;;
1991;SDS011;997;48.448;8.924;2023-04-06T03:06:29;9.47;;;8.53;;
1991;SDS011;997;48.448;8.924;2023-04-06T03:08:55;10.23;;;9.13;;
1991;SDS011;997;48.448;8.924;2023-04-06T03:11:21;9.50;;;8.57;;
1991;SDS011;997;48.448;8.924;2023-04-06T03:13:46;10.23;;;9.17;;
1991;SDS011;997;48.448;8.924;2023-04-06T03:16:12;10.23;;;9.23;;
1991;SDS011;997;48.448;8.924;2023-04-06T03:18:38;9.30;;;8.20;;
1991;SDS011;997;48.448;8.924;2023-04-06T03:21:04;10.77;;;8.67;;
1991;SDS011;997;48.448;8.924;2023-04-06T03:23:30;9.93;;;9.10;;
1991;SDS011;997;48.448;8.924;2023-04-06T03:25:55;10.23;;;9.10;;
1991;SDS011;997;48.448;8.924;2023-04-06T03:28:21;11.10;;;9.70;;
1991;SDS011;997;48.448;8.924;2023-04-06T03:30:47;9.90;;;9.00;;
1991;SDS011;997;48.448;8.924;2023-04-06T03:33:14;9.63;;;8.83;;
1991;SDS011;997;48.448;8.924;2023-04-06T03:35:40;13.30;;;9.30;;
1991;SDS011;997;48.448;8.924;2023-04-06T03:38:05;9.37;;;8.43;;
1991;SDS011;997;48.448;8.924;2023-04-06T03:40:31;15.03;;;9.63;;
1991;SDS011;997;48.448;8.924;2023-04-06T03:42:57;9.97;;;9.07;;
1991;SDS011;997;48.448;8.924;2023-04-06T03:45:23;10.43;;;9.50;;
1991;SDS011;997;48.448;8.924;2023-04-06T03:47:48;10.60;;;9.60;;
1991;SDS011;997;48.448;8.924;2023-04-06T03:50:14;10.57;;;9.67;;
1991;SDS011;997;48.448;8.924;2023-04-06T03:52:40;10.17;;;9.27;;
1991;SDS011;997;48.448;8.924;2023-04-06T03:55:06;14.23;;;8.30;;
1991;SDS011;997;48.448;8.924;2023-04-06T03:57:32;11.30;;;9.97;;
1991;SDS011;997;48.448;8.924;2023-04-06T03:59:58;10.23;;;9.33;;
1991;SDS011;997;48.448;8.924;2023-04-06T04:02:24;9.60;;;8.60;;
1991;SDS011;997;48.448;8.924;2023-04-06T04:04:50;9.43;;;8.73;;
1991;SDS011;997;48.448;8.924;2023-04-06T04:07:16;10.00;;;9.10;;
1991;SDS011;997;48.448;8.924;2023-04-06T04:09:41;8.97;;;8.27;;
1991;SDS011;997;48.448;8.924;2023-04-06T04:12:07;9.33;;;8.53;;
1991;SDS011;997;48.448;8.924;2023-04-06T04:14:33;12.60;;;9.50;;
1991;SDS011;997;48.448;8.924;2023-04-06T04:16:58;9.60;;;8.90;;
1991;SDS011;997;48.448;8.924;2023-04-06T04:19:24;9.57;;;8.70;;
1991;SDS011;997;48.448;8.924;2023-04-06T04:21:50;11.30;;;9.67;;
1991;SDS011;997;48.448;8.924;2023-04-06T04:24:15;9.80;;;8.83;;
1991;SDS011;997;48.448;8.924;2023-04-06T04:26:41;9.77;;;9.00;;
1991;SDS011;997;48.448;8.924;2023-04-06T04:29:07;9.33;;;8.53;;
1991;SDS011;997;48.448;8.924;2023-04-06T04:31:33;9.43;;;8.43;;
1991;SDS011;997;48.448;8.924;2023-04-06T04:33:59;10.33;;;8.90;;
1991;SDS011;997;48.448;8.924;2023-04-06T04:36:25;9.63;;;8.73;;
1991;SDS011;997;48.448;8.924;2023-04-06T04:38:54;9.83;;;8.93;;
1991;SDS011;997;48.448;8.924;2023-04-06T04:41:19;9.70;;;8.80;;
1991;SDS011;997;48.448;8.924;2023-04-06T04:43:45;10.47;;;9.33;;
1991;SDS011;997;48.448;8.924;2023-04-06T04:46:11;9.53;;;8.63;;
1991;SDS011;997;48.448;8.924;2023-04-06T04:48:36;10.60;;;9.60;;
1991;SDS011;997;48.448;8.924;2023-04-06T04:51:03;11.23;;;9.20;;
1991;SDS011;997;48.448;8.924;2023-04-06T04:53:29;9.70;;;8.83;;
1991;SDS011;997;48.448;8.924;2023-04-06T04:55:55;10.20;;;9.40;;
1991;SDS011;997;48.448;8.924;2023-04-06T04:58:21;11.50;;;10.33;;
1991;SDS011;997;48.448;8.924;2023-04-06T05:00:46;10.67;;;9.70;;
1991;SDS011;997;48.448;8.924;2023-04-06T05:03:23;11.57;;;10.47;;
1991;SDS011;997;48.448;8.924;2023-04-06T05:05:52;10.10;;;9.10;;
1991;SDS011;997;48.448;8.924;2023-04-06T05:08:18;11.73;;;9.23;;
1991;SDS011;997;48.448;8.924;2023-04-06T05:10:43;11.97;;;10.73;;
1991;SDS011;997;48.448;8.924;2023-04-06T05:13:10;14.23;;;12.47;;
1991;SDS011;997;48.448;8.924;2023-04-06T05:15:36;12.83;;;10.20;;
1991;SDS011;997;48.448;8.924;2023-04-06T05:18:05;10.63;;;9.63;;
1991;SDS011;997;48.448;8.924;2023-04-06T05:20:34;12.03;;;11.00;;
1991;SDS011;997;48.448;8.924;2023-04-06T05:23:01;10.60;;;9.70;;
1991;SDS011;997;48.448;8.924;2023-04-06T05:25:27;11.90;;;10.87;;
1991;SDS011;997;48.448;8.924;2023-04-06T05:27:52;10.40;;;9.40;;
1991;SDS011;997;48.448;8.924;2023-04-06T05:30:18;9.30;;;8.50;;
1991;SDS011;997;48.448;8.924;2023-04-06T05:32:45;11.03;;;9.97;;
1991;SDS011;997;48.448;8.924;2023-04-06T05:35:11;11.23;;;10.13;;
1991;SDS011;997;48.448;8.924;2023-04-06T05:37:43;11.30;;;10.13;;
1991;SDS011;997;48.448;8.924;2023-04-06T05:40:09;12.30;;;11.20;;
1991;SDS011;997;48.448;8.924;2023-04-06T05:42:38;11.37;;;10.33;;
1991;SDS011;997;48.448;8.924;2023-04-06T05:45:06;10.93;;;10.03;;
1991;SDS011;997;48.448;8.924;2023-04-06T05:47:32;10.90;;;9.90;;
1991;SDS011;997;48.448;8.924;2023-04-06T05:49:58;11.93;;;10.83;;
1991;SDS011;997;48.448;8.924;2023-04-06T05:52:23;11.67;;;10.50;;
1991;SDS011;997;48.448;8.924;2023-04-06T05:54:49;9.77;;;8.97;;
1991;SDS011;997;48.448;8.924;2023-04-06T05:57:15;11.67;;;10.47;;
1991;SDS011;997;48.448;8.924;2023-04-06T05:59:44;14.90;;;10.83;;
1991;SDS011;997;48.448;8.924;2023-04-06T06:02:10;11.43;;;10.37;;
1991;SDS011;997;48.448;8.924;2023-04-06T06:04:35;12.67;;;11.37;;
1991;SDS011;997;48.448;8.924;2023-04-06T06:07:01;11.30;;;9.50;;
1991;SDS011;997;48.448;8.924;2023-04-06T06:09:27;11.17;;;10.07;;
1991;SDS011;997;48.448;8.924;2023-04-06T06:11:53;11.20;;;10.20;;
1991;SDS011;997;48.448;8.924;2023-04-06T06:14:18;10.30;;;9.40;;
1991;SDS011;997;48.448;8.924;2023-04-06T06:16:45;13.73;;;9.37;;
1991;SDS011;997;48.448;8.924;2023-04-06T06:19:10;12.03;;;11.00;;
1991;SDS011;997;48.448;8.924;2023-04-06T06:21:36;10.70;;;9.87;;
1991;SDS011;997;48.448;8.924;2023-04-06T06:24:02;10.60;;;9.63;;
1991;SDS011;997;48.448;8.924;2023-04-06T06:26:28;11.00;;;9.90;;
1991;SDS011;997;48.448;8.924;2023-04-06T06:28:53;11.03;;;10.03;;
1991;SDS011;997;48.448;8.924;2023-04-06T06:31:20;11.80;;;10.63;;
1991;SDS011;997;48.448;8.924;2023-04-06T06:33:47;12.57;;;11.23;;
1991;SDS011;997;48.448;8.924;2023-04-06T06:36:16;11.03;;;9.80;;
1991;SDS011;997;48.448;8.924;2023-04-06T06:38:42;11.17;;;10.27;;
1991;SDS011;997;48.448;8.924;2023-04-06T06:41:08;11.00;;;9.90;;
1991;SDS011;997;48.448;8.924;2023-04-06T06:43:34;10.53;;;9.53;;
1991;SDS011;997;48.448;8.924;2023-04-06T06:46:00;10.73;;;9.67;;
1991;SDS011;997;48.448;8.924;2023-04-06T06:48:25;12.23;;;10.60;;
1991;SDS011;997;48.448;8.924;2023-04-06T06:50:51;12.90;;;10.73;;
1991;SDS011;997;48.448;8.924;2023-04-06T06:53:17;11.90;;;10.73;;
1991;SDS011;997;48.448;8.924;2023-04-06T06:55:43;11.10;;;10.00;;
1991;SDS011;997;48.448;8.924;2023-04-06T06:58:09;10.80;;;9.80;;
1991;SDS011;997;48.448;8.924;2023-04-06T07:00:35;9.67;;;8.87;;
1991;SDS011;997;48.448;8.924;2023-04-06T07:03:01;12.40;;;11.30;;
1991;SDS011;997;48.448;8.924;2023-04-06T07:05:27;12.20;;;9.63;;
1991;SDS011;997;48.448;8.924;2023-04-06T07:07:53;12.47;;;11.37;;
1991;SDS011;997;48.448;8.924;2023-04-06T07:10:19;11.37;;;10.17;;
1991;SDS011;997;48.448;8.924;2023-04-06T07:12:45;12.13;;;10.83;;
1991;SDS011;997;48.448;8.924;2023-04-06T07:15:11;11.50;;;10.40;;
1991;SDS011;997;48.448;8.924;2023-04-06T07:17:37;11.60;;;10.60;;
1991;SDS011;997;48.448;8.924;2023-04-06T07:20:02;11.73;;;10.70;;
1991;SDS011;997;48.448;8.924;2023-04-06T07:22:28;11.50;;;10.50;;
1991;SDS011;997;48.448;8.924;2023-04-06T07:24:55;12.07;;;10.97;;
1991;SDS011;997;48.448;8.924;2023-04-06T07:27:21;12.00;;;10.40;;
1991;SDS011;997;48.448;8.924;2023-04-06T07:29:47;11.33;;;9.47;;
1991;SDS011;997;48.448;8.924;2023-04-06T07:32:12;11.53;;;10.53;;
1991;SDS011;997;48.448;8.924;2023-04-06T07:34:38;11.70;;;10.57;;
1991;SDS011;997;48.448;8.924;2023-04-06T07:37:04;10.37;;;9.40;;
1991;SDS011;997;48.448;8.924;2023-04-06T07:39:30;12.03;;;10.87;;
1991;SDS011;997;48.448;8.924;2023-04-06T07:41:56;11.90;;;10.80;;
1991;SDS011;997;48.448;8.924;2023-04-06T07:44:21;10.10;;;9.17;;
1991;SDS011;997;48.448;8.924;2023-04-06T07:46:47;11.33;;;10.33;;
1991;SDS011;997;48.448;8.924;2023-04-06T07:49:13;11.30;;;10.30;;
1991;SDS011;997;48.448;8.924;2023-04-06T07:51:39;12.63;;;10.00;;
1991;SDS011;997;48.448;8.924;2023-04-06T07:54:05;10.90;;;9.80;;
1991;SDS011;997;48.448;8.924;2023-04-06T07:56:31;10.23;;;9.33;;
1991;SDS011;997;48.448;8.924;2023-04-06T07:58:57;10.27;;;9.37;;
1991;SDS011;997;48.448;8.924;2023-04-06T08:01:23;11.00;;;10.07;;
1991;SDS011;997;48.448;8.924;2023-04-06T08:03:49;11.23;;;9.37;;
1991;SDS011;997;48.448;8.924;2023-04-06T08:06:15;11.77;;;10.50;;
1991;SDS011;997;48.448;8.924;2023-04-06T08:08:42;10.57;;;9.57;;
1991;SDS011;997;48.448;8.924;2023-04-06T08:11:08;9.90;;;8.90;;
1991;SDS011;997;48.448;8.924;2023-04-06T08:13:34;9.47;;;8.53;;
1991;SDS011;997;48.448;8.924;2023-04-06T08:16:01;10.20;;;9.20;;
1991;SDS011;997;48.448;8.924;2023-04-06T08:18:27;9.90;;;9.00;;
1991;SDS011;997;48.448;8.924;2023-04-06T08:20:54;9.70;;;8.87;;
1991;SDS011;997;48.448;8.924;2023-04-06T08:23:21;11.10;;;10.00;;
1991;SDS011;997;48.448;8.924;2023-04-06T08:25:46;9.40;;;8.50;;
1991;SDS011;997;48.448;8.924;2023-04-06T08:28:12;9.23;;;8.43;;
1991;SDS011;997;48.448;8.924;2023-04-06T08:30:41;9.33;;;8.40;;
1991;SDS011;997;48.448;8.924;2023-04-06T08:33:07;9.90;;;9.10;;
1991;SDS011;997;48.448;8.924;2023-04-06T08:35:33;9.33;;;8.53;;
1991;SDS011;997;48.448;8.924;2023-04-06T08:37:59;11.00;;;10.10;;
1991;SDS011;997;48.448;8.924;2023-04-06T08:40:25;9.57;;;8.73;;
1991;SDS011;997;48.448;8.924;2023-04-06T08:42:52;10.07;;;9.20;;
1991;SDS011;997;48.448;8.924;2023-04-06T08:45:20;9.23;;;8.43;;
1991;SDS011;997;48.448;8.924;2023-04-06T08:47:51;9.07;;;8.17;;
1991;SDS011;997;48.448;8.924;2023-04-06T08:50:20;9.50;;;8.70;;
1991;SDS011;997;48.448;8.924;2023-04-06T08:52:47;8.07;;;7.40;;
1991;SDS011;997;48.448;8.924;2023-04-06T08:55:13;9.10;;;8.20;;
1991;SDS011;997;48.448;8.924;2023-04-06T08:57:40;8.67;;;7.97;;
1991;SDS011;997;48.448;8.924;2023-04-06T09:00:07;9.10;;;8.30;;
1991;SDS011;997;48.448;8.924;2023-04-06T09:02:36;9.23;;;8.43;;
1991;SDS011;997;48.448;8.924;2023-04-06T09:05:06;8.30;;;7.60;;
1991;SDS011;997;48.448;8.924;2023-04-06T09:07:33;8.50;;;7.87;;
1991;SDS011;997;48.448;8.924;2023-04-06T09:10:00;8.70;;;7.90;;
1991;SDS011;997;48.448;8.924;2023-04-06T09:12:30;9.00;;;8.10;;
1991;SDS011;997;48.448;8.924;2023-04-06T09:14:57;8.67;;;7.90;;
1991;SDS011;997;48.448;8.924;2023-04-06T11:35:27;6.73;;;6.13;;
1991;SDS011;997;48.448;8.924;2023-04-06T11:37:57;6.80;;;6.30;;
1991;SDS011;997;48.448;8.924;2023-04-06T11:40:23;6.90;;;6.30;;
1991;SDS011;997;48.448;8.924;2023-04-06T11:42:55;6.53;;;5.97;;
1991;SDS011;997;48.448;8.924;2023-04-06T11:45:22;6.13;;;5.53;;
1991;SDS011;997;48.448;8.924;2023-04-06T11:47:57;5.77;;;5.17;;
1991;SDS011;997;48.448;8.924;2023-04-06T11:50:25;9.80;;;7.13;;
1991;SDS011;997;48.448;8.924;2023-04-06T11:53:00;8.17;;;7.10;;
1991;SDS011;997;48.448;8.924;2023-04-06T11:55:28;6.20;;;5.73;;
1991;SDS011;997;48.448;8.924;2023-04-06T11:57:53;7.40;;;6.70;;
1991;SDS011;997;48.448;8.924;2023-04-06T12:00:20;5.93;;;5.43;;
1991;SDS011;997;48.448;8.924;2023-04-06T12:02:47;5.30;;;4.80;;
1991;SDS011;997;48.448;8.924;2023-04-06T12:05:13;7.10;;;5.80;;
1991;SDS011;997;48.448;8.924;2023-04-06T12:07:39;6.47;;;5.90;;
1991;SDS011;997;48.448;8.924;2023-04-06T12:10:05;5.47;;;5.00;;
1991;SDS011;997;48.448;8.924;2023-04-06T12:12:31;6.10;;;5.47;;
1991;SDS011;997;48.448;8.924;2023-04-06T12:14:57;6.87;;;5.97;;
1991;SDS011;997;48.448;8.924;2023-04-06T12:17:23;5.87;;;5.27;;
1991;SDS011;997;48.448;8.924;2023-04-06T12:19:49;5.00;;;4.50;;
1991;SDS011;997;48.448;8.924;2023-04-06T12:22:15;5.13;;;4.73;;
1991;SDS011;997;48.448;8.924;2023-04-06T12:24:42;7.67;;;6.00;;
1991;SDS011;997;48.448;8.924;2023-04-06T12:27:08;7.30;;;5.03;;
1991;SDS011;997;48.448;8.924;2023-04-06T12:29:36;5.20;;;4.80;;
1991;SDS011;997;48.448;8.924;2023-04-06T12:32:02;4.97;;;4.57;;
1991;SDS011;997;48.448;8.924;2023-04-06T12:34:28;7.03;;;6.33;;
1991;SDS011;997;48.448;8.924;2023-04-06T12:36:54;12.20;;;5.30;;
1991;SDS011;997;48.448;8.924;2023-04-06T12:39:21;6.53;;;5.93;;
1991;SDS011;997;48.448;8.924;2023-04-06T12:41:47;5.90;;;5.40;;
1991;SDS011;997;48.448;8.924;2023-04-06T12:44:12;7.77;;;6.00;;
1991;SDS011;997;48.448;8.924;2023-04-06T12:46:38;5.97;;;5.50;;
1991;SDS011;997;48.448;8.924;2023-04-06T12:49:04;6.70;;;6.10;;
1991;SDS011;997;48.448;8.924;2023-04-06T12:51:30;5.60;;;5.07;;
1991;SDS011;997;48.448;8.924;2023-04-06T12:53:58;6.53;;;5.90;;
1991;SDS011;997;48.448;8.924;2023-04-06T12:56:24;6.20;;;5.60;;
1991;SDS011;997;48.448;8.924;2023-04-06T12:58:50;6.83;;;6.13;;
1991;SDS011;997;48.448;8.924;2023-04-06T13:01:17;6.47;;;5.87;;
1991;SDS011;997;48.448;8.924;2023-04-06T13:03:42;6.80;;;5.20;;
1991;SDS011;997;48.448;8.924;2023-04-06T13:06:08;7.23;;;5.07;;
1991;SDS011;997;48.448;8.924;2023-04-06T13:08:35;4.97;;;4.57;;
1991;SDS011;997;48.448;8.924;2023-04-06T13:11:02;5.87;;;5.30;;
1991;SDS011;997;48.448;8.924;2023-04-06T13:13:29;5.90;;;5.40;;
1991;SDS011;997;48.448;8.924;2023-04-06T13:16:03;5.43;;;4.93;;
1991;SDS011;997;48.448;8.924;2023-04-06T13:18:30;5.70;;;5.10;;
1991;SDS011;997;48.448;8.924;2023-04-06T13:20:57;6.23;;;5.70;;
1991;SDS011;997;48.448;8.924;2023-04-06T13:23:24;5.87;;;5.40;;
1991;SDS011;997;48.448;8.924;2023-04-06T13:26:00;5.33;;;4.83;;
1991;SDS011;997;48.448;8.924;2023-04-06T13:49:01;5.60;;;5.07;;
1991;SDS011;997;48.448;8.924;2023-04-06T13:51:27;5.30;;;4.80;;
1991;SDS011;997;48.448;8.924;2023-04-06T13:53:52;5.83;;;5.33;;
1991;SDS011;997;48.448;8.924;2023-04-06T13:56:18;8.00;;;6.07;;
1991;SDS011;997;48.448;8.924;2023-04-06T13:58:44;12.60;;;11.30;;
1991;SDS011;997;48.448;8.924;2023-04-06T14:01:10;5.70;;;5.30;;
1991;SDS011;997;48.448;8.924;2023-04-06T14:03:36;6.30;;;4.83;;
1991;SDS011;997;48.448;8.924;2023-04-06T14:06:09;5.57;;;4.47;;
1991;SDS011;997;48.448;8.924;2023-04-06T14:08:38;5.23;;;4.83;;
1991;SDS011;997;48.448;8.924;2023-04-06T14:11:03;5.70;;;5.20;;
1991;SDS011;997;48.448;8.924;2023-04-06T14:13:29;7.20;;;6.60;;
1991;SDS011;997;48.448;8.924;2023-04-06T14:15:55;12.07;;;9.50;;
1991;SDS011;997;48.448;8.924;2023-04-06T14:18:22;5.33;;;4.87;;
1991;SDS011;997;48.448;8.924;2023-04-06T14:20:54;4.40;;;4.10;;
1991;SDS011;997;48.448;8.924;2023-04-06T14:23:21;8.10;;;7.20;;
1991;SDS011;997;48.448;8.924;2023-04-06T14:25:47;13.20;;;11.87;;
1991;SDS011;997;48.448;8.924;2023-04-06T14:28:12;5.87;;;5.37;;
1991;SDS011;997;48.448;8.924;2023-04-06T14:30:38;10.80;;;9.03;;
1991;SDS011;997;48.448;8.924;2023-04-06T14:33:04;10.20;;;9.37;;
1991;SDS011;997;48.448;8.924;2023-04-06T14:35:30;4.90;;;4.33;;
1991;SDS011;997;48.448;8.924;2023-04-06T14:37:57;5.70;;;4.70;;
1991;SDS011;997;48.448;8.924;2023-04-06T14:40:23;6.23;;;4.30;;
1991;SDS011;997;48.448;8.924;2023-04-06T14:42:49;4.87;;;3.93;;
1991;SDS011;997;48.448;8.924;2023-04-06T14:45:18;4.43;;;4.00;;
1991;SDS011;997;48.448;8.924;2023-04-06T14:47:46;4.00;;;3.60;;
1991;SDS011;997;48.448;8.924;2023-04-06T14:50:12;3.70;;;3.40;;
1991;SDS011;997;48.448;8.924;2023-04-06T14:52:37;4.37;;;3.80;;
1991;SDS011;997;48.448;8.924;2023-04-06T14:55:03;5.03;;;4.63;;
1991;SDS011;997;48.448;8.924;2023-04-06T14:57:29;4.73;;;4.23;;
1991;SDS011;997;48.448;8.924;2023-04-06T14:59:56;3.83;;;3.53;;
1991;SDS011;997;48.448;8.924;2023-04-06T15:02:21;3.53;;;3.33;;
1991;SDS011;997;48.448;8.924;2023-04-06T15:04:47;3.83;;;3.50;;
1991;SDS011;997;48.448;8.924;2023-04-06T15:07:13;5.87;;;4.43;;
1991;SDS011;997;48.448;8.924;2023-04-06T15:09:38;4.50;;;4.10;;
1991;SDS011;997;48.448;8.924;2023-04-06T15:12:04;3.87;;;3.57;;
1991;SDS011;997;48.448;8.924;2023-04-06T15:14:30;5.63;;;4.83;;
1991;SDS011;997;48.448;8.924;2023-04-06T15:16:56;5.07;;;4.60;;
1991;SDS011;997;48.448;8.924;2023-04-06T15:22:13;7.00;;;6.40;;
1991;SDS011;997;48.448;8.924;2023-04-06T15:24:39;10.10;;;9.40;;
1991;SDS011;997;48.448;8.924;2023-04-06T15:27:04;5.57;;;4.40;;
1991;SDS011;997;48.448;8.924;2023-04-06T15:29:30;5.17;;;4.77;;
1991;SDS011;997;48.448;8.924;2023-04-06T15:31:56;5.57;;;5.13;;
1991;SDS011;997;48.448;8.924;2023-04-06T15:34:22;6.80;;;6.13;;
1991;SDS011;997;48.448;8.924;2023-04-06T15:36:48;6.13;;;5.53;;
1991;SDS011;997;48.448;8.924;2023-04-06T15:39:13;4.50;;;4.10;;
1991;SDS011;997;48.448;8.924;2023-04-06T15:41:39;4.67;;;4.20;;
1991;SDS011;997;48.448;8.924;2023-04-06T15:44:05;4.63;;;3.97;;
1991;SDS011;997;48.448;8.924;2023-04-06T15:46:31;4.87;;;4.33;;
1991;SDS011;997;48.448;8.924;2023-04-06T15:48:56;4.13;;;3.73;;
1991;SDS011;997;48.448;8.924;2023-04-06T15:51:22;4.43;;;3.73;;
1991;SDS011;997;48.448;8.924;2023-04-06T15:53:48;5.70;;;4.50;;
1991;SDS011;997;48.448;8.924;2023-04-06T15:56:13;4.70;;;4.40;;
1991;SDS011;997;48.448;8.924;2023-04-06T15:58:40;3.90;;;3.60;;
1991;SDS011;997;48.448;8.924;2023-04-06T16:01:12;7.20;;;5.10;;
1991;SDS011;997;48.448;8.924;2023-04-06T16:03:42;4.67;;;4.27;;
1991;SDS011;997;48.448;8.924;2023-04-06T16:06:08;5.17;;;4.20;;
1991;SDS011;997;48.448;8.924;2023-04-06T16:08:34;3.37;;;3.10;;
1991;SDS011;997;48.448;8.924;2023-04-06T16:11:00;4.30;;;3.50;;
1991;SDS011;997;48.448;8.924;2023-04-06T16:13:26;3.73;;;3.43;;
1991;SDS011;997;48.448;8.924;2023-04-06T16:15:52;4.30;;;3.90;;
1991;SDS011;997;48.448;8.924;2023-04-06T16:18:18;3.60;;;3.20;;
1991;SDS011;997;48.448;8.924;2023-04-06T16:20:43;4.27;;;3.80;;
1991;SDS011;997;48.448;8.924;2023-04-06T16:23:10;4.07;;;3.70;;
1991;SDS011;997;48.448;8.924;2023-04-06T16:25:36;3.40;;;3.10;;
1991;SDS011;997;48.448;8.924;2023-04-06T16:28:01;4.50;;;4.10;;
1991;SDS011;997;48.448;8.924;2023-04-06T16:30:27;3.60;;;3.30;;
1991;SDS011;997;48.448;8.924;2023-04-06T16:32:55;4.27;;;3.70;;
1991;SDS011;997;48.448;8.924;2023-04-06T16:35:21;5.10;;;4.60;;
1991;SDS011;997;48.448;8.924;2023-04-06T16:37:47;4.43;;;3.93;;
1991;SDS011;997;48.448;8.924;2023-04-06T16:40:14;3.60;;;3.30;;
1991;SDS011;997;48.448;8.924;2023-04-06T16:42:43;3.27;;;3.00;;
1991;SDS011;997;48.448;8.924;2023-04-06T16:45:10;5.40;;;4.07;;
1991;SDS011;997;48.448;8.924;2023-04-06T16:47:36;8.87;;;7.80;;
1991;SDS011;997;48.448;8.924;2023-04-06T16:50:03;5.23;;;4.50;;
1991;SDS011;997;48.448;8.924;2023-04-06T16:52:29;6.50;;;5.90;;
1991;SDS011;997;48.448;8.924;2023-04-06T16:54:55;6.13;;;5.37;;
1991;SDS011;997;48.448;8.924;2023-04-06T16:57:21;5.53;;;3.97;;
1991;SDS011;997;48.448;8.924;2023-04-06T16:59:48;4.70;;;4.30;;
1991;SDS011;997;48.448;8.924;2023-04-06T17:02:14;7.07;;;5.17;;
1991;SDS011;997;48.448;8.924;2023-04-06T17:04:40;6.03;;;5.10;;
1991;SDS011;997;48.448;8.924;2023-04-06T17:07:07;5.00;;;4.43;;
1991;SDS011;997;48.448;8.924;2023-04-06T17:09:34;6.80;;;5.37;;
1991;SDS011;997;48.448;8.924;2023-04-06T17:12:00;6.57;;;4.80;;
1991;SDS011;997;48.448;8.924;2023-04-06T17:14:29;5.83;;;4.07;;
1991;SDS011;997;48.448;8.924;2023-04-06T17:16:56;5.93;;;3.77;;
1991;SDS011;997;48.448;8.924;2023-04-06T17:19:21;6.33;;;5.50;;
1991;SDS011;997;48.448;8.924;2023-04-06T17:21:47;3.83;;;3.43;;
1991;SDS011;997;48.448;8.924;2023-04-06T17:24:13;4.90;;;4.50;;
1991;SDS011;997;48.448;8.924;2023-04-06T17:26:38;7.00;;;6.30;;
1991;SDS011;997;48.448;8.924;2023-04-06T17:29:04;4.80;;;4.30;;
1991;SDS011;997;48.448;8.924;2023-04-06T17:31:30;6.13;;;5.20;;
1991;SDS011;997;48.448;8.924;2023-04-06T17:33:56;5.10;;;4.60;;
1991;SDS011;997;48.448;8.924;2023-04-06T17:36:21;5.60;;;4.97;;
1991;SDS011;997;48.448;8.924;2023-04-06T17:38:48;5.30;;;4.40;;
1991;SDS011;997;48.448;8.924;2023-04-06T17:41:14;4.37;;;3.97;;
1991;SDS011;997;48.448;8.924;2023-04-06T17:43:40;4.20;;;3.80;;
1991;SDS011;997;48.448;8.924;2023-04-06T17:46:06;5.50;;;5.00;;
1991;SDS011;997;48.448;8.924;2023-04-06T17:48:31;5.53;;;4.33;;
1991;SDS011;997;48.448;8.924;2023-04-06T17:50:58;3.40;;;3.10;;
1991;SDS011;997;48.448;8.924;2023-04-06T17:53:24;5.30;;;4.20;;
1991;SDS011;997;48.448;8.924;2023-04-06T17:55:54;5.33;;;4.50;;
1991;SDS011;997;48.448;8.924;2023-04-06T17:58:20;3.83;;;3.43;;
1991;SDS011;997;48.448;8.924;2023-04-06T18:00:46;4.93;;;4.33;;
1991;SDS011;997;48.448;8.924;2023-04-06T18:03:12;5.50;;;3.67;;
1991;SDS011;997;48.448;8.924;2023-04-06T18:05:38;3.30;;;3.00;;
1991;SDS011;997;48.448;8.924;2023-04-06T18:08:03;3.00;;;2.80;;
1991;SDS011;997;48.448;8.924;2023-04-06T18:10:29;3.83;;;3.53;;
1991;SDS011;997;48.448;8.924;2023-04-06T18:12:55;4.00;;;3.60;;
1991;SDS011;997;48.448;8.924;2023-04-06T18:15:21;4.63;;;3.57;;
1991;SDS011;997;48.448;8.924;2023-04-06T18:17:48;3.83;;;2.10;;
1991;SDS011;997;48.448;8.924;2023-04-06T18:20:14;5.13;;;3.10;;
1991;SDS011;997;48.448;8.924;2023-04-06T18:22:41;5.83;;;5.03;;
1991;SDS011;997;48.448;8.924;2023-04-06T18:25:07;8.60;;;5.50;;
1991;SDS011;997;48.448;8.924;2023-04-06T18:27:33;3.60;;;2.90;;
1991;SDS011;997;48.448;8.924;2023-04-06T18:29:59;8.30;;;3.43;;
1991;SDS011;997;48.448;8.924;2023-04-06T18:32:25;5.03;;;3.83;;
1991;SDS011;997;48.448;8.924;2023-04-06T18:34:57;9.03;;;5.47;;
1991;SDS011;997;48.448;8.924;2023-04-06T18:37:23;5.10;;;3.43;;
1991;SDS011;997;48.448;8.924;2023-04-06T18:39:50;3.90;;;3.60;;
1991;SDS011;997;48.448;8.924;2023-04-06T18:42:17;6.30;;;4.50;;
1991;SDS011;997;48.448;8.924;2023-04-06T18:44:43;3.20;;;2.60;;
1991;SDS011;997;48.448;8.924;2023-04-06T18:47:09;3.30;;;2.67;;
1991;SDS011;997;48.448;8.924;2023-04-06T18:49:35;2.80;;;2.50;;
1991;SDS011;997;48.448;8.924;2023-04-06T18:52:03;3.63;;;3.33;;
1991;SDS011;997;48.448;8.924;2023-04-06T18:54:30;3.60;;;3.40;;
1991;SDS011;997;48.448;8.924;2023-04-06T18:56:55;3.60;;;3.30;;
1991;SDS011;997;48.448;8.924;2023-04-06T18:59:21;3.60;;;3.40;;
1991;SDS011;997;48.448;8.924;2023-04-06T19:01:47;4.27;;;3.87;;
1991;SDS011;997;48.448;8.924;2023-04-06T19:04:17;4.20;;;3.90;;
1991;SDS011;997;48.448;8.924;2023-04-06T19:06:44;5.00;;;4.37;;
1991;SDS011;997;48.448;8.924;2023-04-06T19:09:10;7.43;;;6.00;;
1991;SDS011;997;48.448;8.924;2023-04-06T19:11:36;10.23;;;8.77;;
1991;SDS011;997;48.448;8.924;2023-04-06T19:14:02;13.30;;;7.37;;
1991;SDS011;997;48.448;8.924;2023-04-06T19:16:27;6.77;;;5.63;;
1991;SDS011;997;48.448;8.924;2023-04-06T19:18:53;5.87;;;5.30;;
1991;SDS011;997;48.448;8.924;2023-04-06T19:23:48;6.00;;;4.77;;
1991;SDS011;997;48.448;8.924;2023-04-06T19:26:15;7.57;;;5.40;;
1991;SDS011;997;48.448;8.924;2023-04-06T19:28:43;4.40;;;4.10;;
1991;SDS011;997;48.448;8.924;2023-04-06T19:31:10;5.03;;;4.73;;
1991;SDS011;997;48.448;8.924;2023-04-06T19:33:37;5.47;;;4.97;;
1991;SDS011;997;48.448;8.924;2023-04-06T19:36:03;5.03;;;4.00;;
1991;SDS011;997;48.448;8.924;2023-04-06T19:38:30;4.77;;;4.37;;
1991;SDS011;997;48.448;8.924;2023-04-06T19:40:57;5.20;;;4.70;;
1991;SDS011;997;48.448;8.924;2023-04-06T19:43:23;5.73;;;5.20;;
1991;SDS011;997;48.448;8.924;2023-04-06T19:45:49;5.80;;;5.40;;
1991;SDS011;997;48.448;8.924;2023-04-06T19:48:15;5.70;;;5.20;;
1991;SDS011;997;48.448;8.924;2023-04-06T19:50:41;6.00;;;5.40;;
1991;SDS011;997;48.448;8.924;2023-04-06T19:53:07;6.50;;;5.53;;
1991;SDS011;997;48.448;8.924;2023-04-06T19:55:33;6.70;;;6.07;;
1991;SDS011;997;48.448;8.924;2023-04-06T19:58:00;6.70;;;5.77;;
1991;SDS011;997;48.448;8.924;2023-04-06T20:00:26;6.07;;;5.50;;
1991;SDS011;997;48.448;8.924;2023-04-06T20:02:52;4.97;;;4.47;;
1991;SDS011;997;48.448;8.924;2023-04-06T20:05:18;5.97;;;5.47;;
1991;SDS011;997;48.448;8.924;2023-04-06T20:07:43;6.10;;;5.50;;
1991;SDS011;997;48.448;8.924;2023-04-06T20:10:09;6.87;;;6.10;;
1991;SDS011;997;48.448;8.924;2023-04-06T20:12:35;8.33;;;5.70;;
1991;SDS011;997;48.448;8.924;2023-04-06T20:15:01;7.70;;;6.57;;
1991;SDS011;997;48.448;8.924;2023-04-06T20:17:27;6.13;;;5.63;;
1991;SDS011;997;48.448;8.924;2023-04-06T20:19:53;6.30;;;5.80;;
1991;SDS011;997;48.448;8.924;2023-04-06T20:22:19;7.17;;;6.50;;
1991;SDS011;997;48.448;8.924;2023-04-06T20:24:45;6.90;;;6.30;;
1991;SDS011;997;48.448;8.924;2023-04-06T20:27:11;9.13;;;8.00;;
1991;SDS011;997;48.448;8.924;2023-04-06T20:29:37;14.70;;;12.83;;
1991;SDS011;997;48.448;8.924;2023-04-06T20:32:03;10.90;;;9.03;;
1991;SDS011;997;48.448;8.924;2023-04-06T20:34:29;10.97;;;10.00;;
1991;SDS011;997;48.448;8.924;2023-04-06T20:36:56;10.00;;;9.10;;
1991;SDS011;997;48.448;8.924;2023-04-06T20:39:22;9.67;;;8.87;;
1991;SDS011;997;48.448;8.924;2023-04-06T20:41:49;6.70;;;6.10;;
1991;SDS011;997;48.448;8.924;2023-04-06T20:44:16;7.10;;;6.50;;
1991;SDS011;997;48.448;8.924;2023-04-06T20:46:42;8.53;;;6.47;;
1991;SDS011;997;48.448;8.924;2023-04-06T20:49:09;7.50;;;6.23;;
1991;SDS011;997;48.448;8.924;2023-04-06T20:51:36;6.90;;;6.37;;
1991;SDS011;997;48.448;8.924;2023-04-06T20:54:03;7.63;;;6.83;;
1991;SDS011;997;48.448;8.924;2023-04-06T20:56:28;6.33;;;5.80;;
1991;SDS011;997;48.448;8.924;2023-04-06T20:58:57;6.60;;;6.00;;
1991;SDS011;997;48.448;8.924;2023-04-06T21:01:24;6.83;;;6.17;;
1991;SDS011;997;48.448;8.924;2023-04-06T21:03:51;7.03;;;6.40;;